createdAt,value
2022-12-01T00:00:19.285Z,-1.3
2022-12-01T00:02:49.974Z,-1.3
2022-12-01T00:05:20.969Z,-1.3
2022-12-01T00:08:01.665Z,-1.3
2022-12-01T00:10:32.313Z,-1.3
2022-12-01T00:13:02.909Z,-1.3
2022-12-01T00:15:33.507Z,-1.3
2022-12-01T00:20:34.245Z,-1.3
2022-12-01T00:23:14.822Z,-1.3
2022-12-01T00:25:45.425Z,-1.4
2022-12-01T00:28:15.988Z,-1.3
2022-12-01T00:30:46.604Z,-1.4
2022-12-01T00:33:17.217Z,-1.4
2022-12-01T00:35:57.808Z,-1.4
2022-12-01T00:38:28.403Z,-1.4
2022-12-01T00:40:58.992Z,-1.4
2022-12-01T00:43:29.582Z,-1.4
2022-12-01T00:46:00.343Z,-1.4
2022-12-01T00:48:31.197Z,-1.3
2022-12-01T00:51:11.821Z,-1.3
2022-12-01T00:53:42.441Z,-1.4
2022-12-01T00:56:13.052Z,-1.4
2022-12-01T01:01:13.870Z,-1.3
2022-12-01T01:03:44.705Z,-1.3
2022-12-01T01:06:25.298Z,-1.3
2022-12-01T01:08:55.875Z,-1.3
2022-12-01T01:11:26.491Z,-1.3
2022-12-01T01:13:57.093Z,-1.3
2022-12-01T01:16:27.705Z,-1.3
2022-12-01T01:18:58.470Z,-1.3
2022-12-01T01:21:39.113Z,-1.3
2022-12-01T01:24:09.723Z,-1.3
2022-12-01T01:26:40.338Z,-1.3
2022-12-01T01:29:10.911Z,-1.3
2022-12-01T01:31:41.493Z,-1.3
2022-12-01T01:34:12.074Z,-1.3
2022-12-01T01:36:52.692Z,-1.3
2022-12-01T01:42:03.447Z,-1.3
2022-12-01T01:44:34.050Z,-1.3
2022-12-01T01:47:04.659Z,-1.2
2022-12-01T01:49:45.492Z,-1.2
2022-12-01T01:52:16.180Z,-1.2
2022-12-01T01:54:46.772Z,-1.2
2022-12-01T01:57:17.340Z,-1.2
2022-12-01T01:59:48.381Z,-1.2
2022-12-01T02:02:19.355Z,-1.2
2022-12-01T02:05:00.176Z,-1.2
2022-12-01T02:07:30.790Z,-1.2
2022-12-01T02:10:01.626Z,-1.2
2022-12-01T02:12:32.248Z,-1.2
2022-12-01T02:15:02.854Z,-1.3
2022-12-01T02:17:36.348Z,-1.3
2022-12-01T02:22:39.563Z,-1.3
2022-12-01T02:25:14.317Z,-1.3
2022-12-01T02:27:44.908Z,-1.3
2022-12-01T02:30:15.507Z,-1.2
2022-12-01T02:32:46.249Z,-1.3
2022-12-01T02:35:26.865Z,-1.2
2022-12-01T02:37:57.476Z,-1.3
2022-12-01T02:40:28.078Z,-1.2
2022-12-01T02:42:58.671Z,-1.3
2022-12-01T02:45:29.276Z,-1.2
2022-12-01T02:48:10.110Z,-1.2
2022-12-01T02:50:40.710Z,-1.3
2022-12-01T02:53:11.301Z,-1.3
2022-12-01T02:55:41.894Z,-1.3
2022-12-01T03:03:22.800Z,-1.3
2022-12-01T03:05:53.397Z,-1.3
2022-12-01T03:08:23.969Z,-1.3
2022-12-01T03:10:54.579Z,-1.3
2022-12-01T03:13:25.181Z,-1.3
2022-12-01T03:15:55.793Z,-1.3
2022-12-01T03:18:36.645Z,-1.3
2022-12-01T03:21:07.274Z,-1.3
2022-12-01T03:23:38.033Z,-1.3
2022-12-01T03:26:08.644Z,-1.3
2022-12-01T03:28:39.225Z,-1.3
2022-12-01T03:31:09.850Z,-1.3
2022-12-01T03:33:50.643Z,-1.3
2022-12-01T03:36:21.279Z,-1.3
2022-12-01T03:38:51.899Z,-1.3
2022-12-01T03:43:52.633Z,-1.3
2022-12-01T03:46:33.308Z,-1.3
2022-12-01T03:49:04.022Z,-1.3
2022-12-01T03:51:34.621Z,-1.3
2022-12-01T03:54:05.215Z,-1.3
2022-12-01T03:56:35.807Z,-1.3
2022-12-01T03:59:06.414Z,-1.3
2022-12-01T04:01:47.039Z,-1.3
2022-12-01T04:04:17.897Z,-1.3
2022-12-01T04:06:48.492Z,-1.3
2022-12-01T04:09:19.120Z,-1.3
2022-12-01T04:11:49.747Z,-1.3
2022-12-01T04:14:30.348Z,-1.3
2022-12-01T04:17:10.937Z,-1.3
2022-12-01T04:19:41.513Z,-1.3
2022-12-01T04:24:42.373Z,-1.3
2022-12-01T04:27:13.014Z,-1.4
2022-12-01T04:29:43.605Z,-1.4
2022-12-01T04:32:24.209Z,-1.4
2022-12-01T04:34:54.820Z,-1.5
2022-12-01T04:37:25.451Z,-1.5
2022-12-01T04:39:56.024Z,-1.5
2022-12-01T04:42:26.648Z,-1.5
2022-12-01T04:44:57.240Z,-1.5
2022-12-01T04:47:37.873Z,-1.5
2022-12-01T04:50:08.465Z,-1.5
2022-12-01T04:52:39.062Z,-1.5
2022-12-01T04:55:09.673Z,-1.5
2022-12-01T04:57:40.292Z,-1.5
2022-12-01T05:00:10.905Z,-1.5
2022-12-01T05:05:21.724Z,-1.5
2022-12-01T05:07:52.388Z,-1.5
2022-12-01T05:10:23.205Z,-1.5
2022-12-01T05:12:53.810Z,-1.5
2022-12-01T05:15:34.428Z,-1.5
2022-12-01T05:18:05.071Z,-1.5
2022-12-01T05:20:35.831Z,-1.5
2022-12-01T05:23:06.832Z,-1.5
2022-12-01T05:25:38.165Z,-1.4
2022-12-01T05:28:08.789Z,-1.5
2022-12-01T05:30:49.409Z,-1.5
2022-12-01T05:33:20.042Z,-1.5
2022-12-01T05:35:50.649Z,-1.5
2022-12-01T05:38:21.262Z,-1.4
2022-12-01T05:40:51.856Z,-1.4
2022-12-01T05:46:02.594Z,-1.4
2022-12-01T05:48:33.419Z,-1.4
2022-12-01T05:51:04.066Z,-1.4
2022-12-01T05:53:34.655Z,-1.4
2022-12-01T05:56:05.254Z,-1.4
2022-12-01T05:58:35.869Z,-1.4
2022-12-01T06:01:16.540Z,-1.4
2022-12-01T06:03:47.259Z,-1.4
2022-12-01T06:06:18.022Z,-1.4
2022-12-01T06:08:48.610Z,-1.4
2022-12-01T06:11:19.234Z,-1.4
2022-12-01T06:13:59.866Z,-1.4
2022-12-01T06:16:30.506Z,-1.4
2022-12-01T06:19:01.315Z,-1.4
2022-12-01T06:21:31.918Z,-1.4
2022-12-01T06:26:32.933Z,-1.4
2022-12-01T06:29:13.588Z,-1.4
2022-12-01T06:31:50.902Z,-1.4
2022-12-01T06:34:21.615Z,-1.4
2022-12-01T06:36:52.244Z,-1.4
2022-12-01T06:39:22.853Z,-1.4
2022-12-01T06:41:53.451Z,-1.4
2022-12-01T06:44:34.039Z,-1.5
2022-12-01T06:47:04.647Z,-1.4
2022-12-01T06:49:35.250Z,-1.4
2022-12-01T06:52:05.891Z,-1.4
2022-12-01T06:54:36.488Z,-1.4
2022-12-01T06:57:07.435Z,-1.4
2022-12-01T06:59:49.054Z,-1.4
2022-12-01T07:02:20.663Z,-1.3
2022-12-01T07:07:21.624Z,-1.3
2022-12-01T07:09:52.371Z,-1.4
2022-12-01T07:12:22.952Z,-1.3
2022-12-01T07:15:03.550Z,-1.3
2022-12-01T07:17:34.116Z,-1.3
2022-12-01T07:20:04.730Z,-1.3
2022-12-01T07:22:35.339Z,-1.3
2022-12-01T07:25:05.950Z,-1.3
2022-12-01T07:27:46.570Z,-1.3
2022-12-01T07:30:17.195Z,-1.3
2022-12-01T07:32:49.285Z,-1.3
2022-12-01T07:35:19.856Z,-1.3
2022-12-01T07:37:50.448Z,-1.2
2022-12-01T07:40:21.073Z,-1.2
2022-12-01T07:43:01.668Z,-1.2
2022-12-01T07:48:02.382Z,-1.2
2022-12-01T07:50:32.985Z,-1.2
2022-12-01T07:53:03.574Z,-1.2
2022-12-01T07:55:34.167Z,-1.1
2022-12-01T07:58:14.785Z,-1.1
2022-12-01T08:00:45.388Z,-1.1
2022-12-01T08:03:16.132Z,-1.1
2022-12-01T08:05:46.845Z,-1.1
2022-12-01T08:08:17.472Z,-1.1
2022-12-01T08:10:48.103Z,-1.1
2022-12-01T08:13:28.714Z,-1.1
2022-12-01T08:15:59.357Z,-1.0
2022-12-01T08:18:30.087Z,-1.0
2022-12-01T08:21:00.695Z,-1.0
2022-12-01T08:23:31.298Z,-1.0
2022-12-01T08:28:42.090Z,-0.9
2022-12-01T08:31:12.786Z,-0.9
2022-12-01T08:33:43.745Z,-0.9
2022-12-01T08:36:14.363Z,-0.9
2022-12-01T08:38:44.965Z,-0.8
2022-12-01T08:41:25.607Z,-0.8
2022-12-01T08:43:58.201Z,-0.8
2022-12-01T08:46:29.479Z,-0.7
2022-12-01T08:49:00.315Z,-0.7
2022-12-01T08:51:30.949Z,-0.7
2022-12-01T08:54:01.556Z,-0.6
2022-12-01T08:56:42.176Z,-0.6
2022-12-01T08:59:12.798Z,-0.5
2022-12-01T09:01:43.419Z,-0.5
2022-12-01T09:04:17.319Z,-0.5
2022-12-01T09:09:18.050Z,-0.2
2022-12-01T09:11:58.646Z,-0.2
2022-12-01T09:14:29.243Z,-0.1
2022-12-01T09:16:59.850Z,-0.1
2022-12-01T09:19:30.471Z,-0.1
2022-12-01T09:22:01.711Z,0.1
2022-12-01T09:24:42.306Z,0.0
2022-12-01T09:27:12.897Z,0.1
2022-12-01T09:29:43.466Z,0.1
2022-12-01T09:32:14.058Z,0.1
2022-12-01T09:34:44.646Z,0.2
2022-12-01T09:39:55.400Z,0.4
2022-12-01T09:42:28.368Z,0.3
2022-12-01T09:44:51.432Z,0.4
2022-12-01T09:50:02.169Z,0.3
2022-12-01T09:52:32.828Z,0.3
2022-12-01T09:55:13.424Z,0.3
2022-12-01T09:57:44.022Z,0.4
2022-12-01T10:00:14.610Z,0.6
2022-12-01T10:02:45.459Z,0.5
2022-12-01T10:05:16.144Z,0.7
2022-12-01T10:07:47.000Z,0.7
2022-12-01T10:10:27.751Z,0.7
2022-12-01T10:12:58.361Z,0.7
2022-12-01T10:15:28.973Z,0.7
2022-12-01T10:17:59.566Z,0.8
2022-12-01T10:20:30.171Z,0.9
2022-12-01T10:23:00.784Z,1.0
2022-12-01T10:25:41.438Z,0.9
2022-12-01T10:30:42.216Z,0.9
2022-12-01T10:33:12.794Z,0.9
2022-12-01T10:35:43.408Z,0.8
2022-12-01T10:38:24.032Z,0.9
2022-12-01T10:40:54.614Z,0.8
2022-12-01T10:43:25.214Z,1.0
2022-12-01T10:45:55.869Z,0.9
2022-12-01T10:48:26.796Z,0.9
2022-12-01T10:50:57.509Z,1.0
2022-12-01T10:53:38.129Z,1.0
2022-12-01T10:56:08.899Z,1.0
2022-12-01T10:58:39.505Z,1.0
2022-12-01T11:01:10.305Z,0.9
2022-12-01T11:03:41.385Z,1.1
2022-12-01T11:06:12.213Z,1.0
2022-12-01T11:11:22.955Z,1.0
2022-12-01T11:13:53.566Z,0.9
2022-12-01T11:16:24.179Z,0.9
2022-12-01T11:18:54.953Z,1.1
2022-12-01T11:21:25.705Z,1.1
2022-12-01T11:24:06.311Z,1.0
2022-12-01T11:26:36.943Z,1.1
2022-12-01T11:29:07.519Z,1.1
2022-12-01T11:31:38.146Z,1.1
2022-12-01T11:34:08.895Z,1.0
2022-12-01T11:36:39.528Z,0.9
2022-12-01T11:39:20.157Z,1.0
2022-12-01T11:41:50.777Z,1.0
2022-12-01T11:44:50.107Z,0.9
2022-12-01T11:47:01.574Z,0.9
2022-12-01T11:52:06.140Z,1.0
2022-12-01T11:54:36.724Z,0.9
2022-12-01T11:57:32.200Z,0.9
2022-12-01T11:59:33.062Z,0.9
2022-12-01T12:02:13.724Z,1.0
2022-12-01T12:04:34.533Z,0.9
2022-12-01T12:07:15.185Z,0.9
2022-12-01T12:09:46.005Z,0.9
2022-12-01T12:12:26.680Z,0.9
2022-12-01T12:14:57.302Z,0.9
2022-12-01T12:17:27.941Z,1.0
2022-12-01T12:20:08.372Z,1.0
2022-12-01T12:22:39.735Z,0.9
2022-12-01T12:25:05.924Z,0.9
2022-12-01T12:27:36.552Z,1.0
2022-12-01T12:32:37.343Z,1.0
2022-12-01T12:35:07.959Z,1.0
2022-12-01T12:37:48.549Z,1.0
2022-12-01T12:40:19.165Z,1.0
2022-12-01T12:42:49.748Z,1.0
2022-12-01T12:45:20.356Z,1.0
2022-12-01T12:47:50.984Z,1.1
2022-12-01T12:50:21.596Z,1.1
2022-12-01T12:53:02.206Z,1.1
2022-12-01T12:55:32.808Z,1.1
2022-12-01T12:58:06.647Z,1.1
2022-12-01T13:00:40.115Z,1.1
2022-12-01T13:03:10.773Z,1.1
2022-12-01T13:05:34.498Z,1.1
2022-12-01T13:08:15.092Z,1.1
2022-12-01T13:13:15.845Z,1.1
2022-12-01T13:15:56.461Z,1.1
2022-12-01T13:18:27.180Z,1.0
2022-12-01T13:21:07.781Z,1.0
2022-12-01T13:23:38.532Z,1.0
2022-12-01T13:26:09.148Z,1.0
2022-12-01T13:28:39.752Z,1.0
2022-12-01T13:31:10.442Z,1.0
2022-12-01T13:33:41.344Z,1.0
2022-12-01T13:36:45.540Z,1.0
2022-12-01T13:38:46.908Z,1.0
2022-12-01T13:41:17.513Z,1.0
2022-12-01T13:43:48.108Z,0.9
2022-12-01T13:46:18.763Z,1.0
2022-12-01T13:48:49.562Z,1.0
2022-12-01T13:54:00.355Z,0.9
2022-12-01T13:56:31.346Z,0.9
2022-12-01T13:59:02.945Z,1.0
2022-12-01T14:01:33.709Z,1.0
2022-12-01T14:04:04.557Z,0.9
2022-12-01T14:06:45.172Z,0.9
2022-12-01T14:09:15.789Z,0.9
2022-12-01T14:11:46.470Z,0.8
2022-12-01T14:14:19.994Z,0.8
2022-12-01T14:16:54.861Z,0.8
2022-12-01T14:19:25.437Z,0.9
2022-12-01T14:22:06.062Z,0.8
2022-12-01T14:24:36.633Z,0.8
2022-12-01T14:27:07.515Z,0.7
2022-12-01T14:29:38.086Z,0.7
2022-12-01T14:34:49.031Z,0.8
2022-12-01T14:37:19.756Z,0.7
2022-12-01T14:39:50.386Z,0.7
2022-12-01T14:42:21.138Z,0.7
2022-12-01T14:44:52.048Z,0.7
2022-12-01T14:47:22.968Z,0.7
2022-12-01T14:50:03.595Z,0.7
2022-12-01T14:52:35.490Z,0.7
2022-12-01T14:55:06.112Z,0.7
2022-12-01T14:57:36.719Z,0.7
2022-12-01T15:00:07.347Z,0.6
2022-12-01T15:02:38.022Z,0.7
2022-12-01T15:05:18.700Z,0.6
2022-12-01T15:07:49.357Z,0.7
2022-12-01T15:10:18.426Z,0.7
2022-12-01T15:15:23.564Z,0.7
2022-12-01T15:17:44.489Z,0.7
2022-12-01T15:20:25.098Z,0.8
2022-12-01T15:22:58.192Z,0.7
2022-12-01T15:25:28.825Z,0.7
2022-12-01T15:27:59.434Z,0.7
2022-12-01T15:30:30.047Z,0.7
2022-12-01T15:33:10.677Z,0.6
2022-12-01T15:35:47.809Z,0.6
2022-12-01T15:38:18.411Z,0.6
2022-12-01T15:43:20.395Z,0.6
2022-12-01T15:45:51.012Z,0.6
2022-12-01T15:48:31.949Z,0.5
2022-12-01T15:51:02.547Z,0.5
2022-12-01T15:56:03.267Z,0.5
2022-12-01T15:58:33.827Z,0.5
2022-12-01T16:01:04.461Z,0.6
2022-12-01T16:03:45.278Z,0.6
2022-12-01T16:06:15.891Z,0.6
2022-12-01T16:08:46.612Z,0.6
2022-12-01T16:11:17.359Z,0.5
2022-12-01T16:13:47.972Z,0.5
2022-12-01T16:16:18.819Z,0.5
2022-12-01T16:18:59.611Z,0.5
2022-12-01T16:21:30.228Z,0.5
2022-12-01T16:24:00.834Z,0.5
2022-12-01T16:26:31.464Z,0.5
2022-12-01T16:29:02.096Z,0.5
2022-12-01T16:31:58.969Z,0.4
2022-12-01T16:36:41.683Z,0.4
2022-12-01T16:39:12.304Z,0.4
2022-12-01T16:41:42.987Z,0.3
2022-12-01T16:44:27.878Z,0.4
2022-12-01T16:46:59.166Z,0.4
2022-12-01T16:49:29.779Z,0.3
2022-12-01T16:52:06.917Z,0.3
2022-12-01T16:54:26.227Z,0.3
2022-12-01T16:56:56.972Z,0.3
2022-12-01T16:59:27.571Z,0.3
2022-12-01T17:02:08.253Z,0.3
2022-12-01T17:04:39.070Z,0.3
2022-12-01T17:07:10.274Z,0.3
2022-12-01T17:09:41.166Z,0.3
2022-12-01T17:12:11.802Z,0.3
2022-12-01T17:17:22.555Z,0.3
2022-12-01T17:19:53.131Z,0.3
2022-12-01T17:22:23.711Z,0.4
2022-12-01T17:24:54.318Z,0.5
2022-12-01T17:27:25.144Z,0.5
2022-12-01T17:30:05.755Z,0.5
2022-12-01T17:32:36.356Z,0.5
2022-12-01T17:35:06.937Z,0.5
2022-12-01T17:37:37.642Z,0.5
2022-12-01T17:40:08.262Z,0.5
2022-12-01T17:42:38.845Z,0.6
2022-12-01T17:45:21.396Z,0.6
2022-12-01T17:47:52.026Z,0.6
2022-12-01T17:50:22.660Z,0.6
2022-12-01T17:52:53.266Z,0.6
2022-12-01T17:57:54.006Z,0.5
2022-12-01T18:00:34.617Z,0.5
2022-12-01T18:03:05.295Z,0.5
2022-12-01T18:05:36.185Z,0.5
2022-12-01T18:08:06.913Z,0.5
2022-12-01T18:10:37.517Z,0.4
2022-12-01T18:13:08.105Z,0.5
2022-12-01T18:15:51.742Z,0.5
2022-12-01T18:18:22.525Z,0.4
2022-12-01T18:20:53.118Z,0.4
2022-12-01T18:23:23.719Z,0.4
2022-12-01T18:25:54.344Z,0.4
2022-12-01T18:28:26.583Z,0.4
2022-12-01T18:31:07.260Z,0.4
2022-12-01T18:33:38.015Z,0.3
2022-12-01T18:38:38.734Z,0.3
2022-12-01T18:41:09.361Z,0.4
2022-12-01T18:43:49.976Z,0.3
2022-12-01T18:46:20.660Z,0.3
2022-12-01T18:48:51.497Z,0.3
2022-12-01T18:51:22.138Z,0.3
2022-12-01T18:53:52.735Z,0.3
2022-12-01T18:56:23.285Z,0.3
2022-12-01T18:59:03.927Z,0.3
2022-12-01T19:01:35.883Z,0.3
2022-12-01T19:04:07.019Z,0.3
2022-12-01T19:06:37.620Z,0.3
2022-12-01T19:09:08.225Z,0.3
2022-12-01T19:11:38.852Z,0.3
2022-12-01T19:14:19.495Z,0.3
2022-12-01T19:19:20.254Z,0.3
2022-12-01T19:21:57.603Z,0.3
2022-12-01T19:24:28.196Z,0.2
2022-12-01T19:26:50.802Z,0.2
2022-12-01T19:29:31.429Z,0.3
2022-12-01T19:32:03.085Z,0.3
2022-12-01T19:34:33.675Z,0.2
2022-12-01T19:37:04.336Z,0.3
2022-12-01T19:39:34.954Z,0.3
2022-12-01T19:42:15.591Z,0.2
2022-12-01T19:44:46.181Z,0.2
2022-12-01T19:47:21.831Z,0.3
2022-12-01T19:49:52.745Z,0.2
2022-12-01T19:52:23.321Z,0.2
2022-12-01T19:54:53.923Z,0.2
2022-12-01T20:00:04.716Z,0.3
2022-12-01T20:02:35.374Z,0.2
2022-12-01T20:05:06.054Z,0.2
2022-12-01T20:07:36.682Z,0.2
2022-12-01T20:10:07.536Z,0.2
2022-12-01T20:12:48.188Z,0.2
2022-12-01T20:15:18.905Z,0.2
2022-12-01T20:17:49.509Z,0.2
2022-12-01T20:20:20.122Z,0.1
2022-12-01T20:22:50.790Z,0.1
2022-12-01T20:25:21.414Z,0.1
2022-12-01T20:28:02.039Z,0.1
2022-12-01T20:30:32.622Z,0.1
2022-12-01T20:33:03.206Z,0.0
2022-12-01T20:35:33.818Z,0.0
2022-12-01T20:40:34.591Z,0.0
2022-12-01T20:43:15.213Z,0.0
2022-12-01T20:45:45.892Z,0.0
2022-12-01T20:48:16.713Z,-0.1
2022-12-01T20:50:47.351Z,-0.1
2022-12-01T20:53:17.932Z,-0.1
2022-12-01T20:55:58.534Z,0.0
2022-12-01T20:58:32.043Z,0.0
2022-12-01T21:01:03.901Z,0.0
2022-12-01T21:03:34.716Z,0.0
2022-12-01T21:06:05.335Z,0.0
2022-12-01T21:08:35.917Z,-0.1
2022-12-01T21:11:16.546Z,-0.1
2022-12-01T21:13:47.161Z,-0.1
2022-12-01T21:16:17.864Z,-0.1
2022-12-01T21:21:18.802Z,-0.1
2022-12-01T21:23:49.382Z,-0.1
2022-12-01T21:26:30.030Z,-0.1
2022-12-01T21:29:00.643Z,-0.1
2022-12-01T21:31:31.252Z,-0.1
2022-12-01T21:34:01.852Z,-0.1
2022-12-01T21:36:32.464Z,-0.1
2022-12-01T21:39:03.057Z,-0.1
2022-12-01T21:41:43.717Z,-0.1
2022-12-01T21:44:14.318Z,-0.2
2022-12-01T21:46:44.915Z,-0.2
2022-12-01T21:49:15.546Z,-0.2
2022-12-01T21:51:46.165Z,-0.2
2022-12-01T21:54:16.784Z,-0.3
2022-12-01T21:56:57.389Z,-0.2
2022-12-01T22:01:58.227Z,-0.3
2022-12-01T22:04:28.972Z,-0.3
2022-12-01T22:06:59.814Z,-0.3
2022-12-01T22:09:30.399Z,-0.3
2022-12-01T22:12:11.012Z,-0.3
2022-12-01T22:14:41.635Z,-0.3
2022-12-01T22:17:12.915Z,-0.3
2022-12-01T22:19:43.509Z,-0.3
2022-12-01T22:22:14.146Z,-0.3
2022-12-01T22:24:54.781Z,-0.3
2022-12-01T22:27:25.409Z,-0.3
2022-12-01T22:29:56.015Z,-0.3
2022-12-01T22:32:26.618Z,-0.4
2022-12-01T22:34:57.241Z,-0.4
2022-12-01T22:37:27.873Z,-0.4
2022-12-01T22:42:48.620Z,-0.4
2022-12-01T22:45:14.173Z,-0.4
2022-12-01T22:47:44.799Z,-0.4
2022-12-01T22:50:15.472Z,-0.4
2022-12-01T22:52:46.085Z,-0.4
2022-12-01T22:55:26.698Z,-0.4
2022-12-01T22:57:57.288Z,-0.4
2022-12-01T23:00:27.908Z,-0.3
2022-12-01T23:02:58.596Z,-0.4
2022-12-01T23:05:29.475Z,-0.5
2022-12-01T23:08:00.096Z,-0.4
2022-12-01T23:10:40.902Z,-0.4
2022-12-01T23:13:11.527Z,-0.4
2022-12-01T23:15:42.223Z,-0.4
2022-12-01T23:18:13.010Z,-0.3
2022-12-01T23:23:23.714Z,-0.4
2022-12-01T23:25:54.360Z,-0.5
2022-12-01T23:28:24.979Z,-0.5
2022-12-01T23:30:55.740Z,-0.5
2022-12-01T23:33:26.635Z,-0.5
2022-12-01T23:35:57.240Z,-0.5
2022-12-01T23:38:37.866Z,-0.5
2022-12-01T23:41:08.495Z,-0.5
2022-12-01T23:43:43.097Z,-0.5
2022-12-01T23:46:13.734Z,-0.5
2022-12-01T23:48:44.609Z,-0.5
2022-12-01T23:51:15.228Z,-0.5
2022-12-01T23:53:55.864Z,-0.5
2022-12-01T23:56:26.497Z,-0.6
2022-12-01T23:58:57.105Z,-0.6
